Terminal Aerodrome Forecast
Issued by NWS Shreveport, LA

Home | Current Version | Previous Version | Text Only | Print | Product List | Glossary On
Versions: 1 2 3 4 5 6 7 8 9 10 11 12 13
000
FTUS44 KSHV 181100
TAFMLU
TAF
KMLU 181122Z 1812/1912 00000KT P6SM BKN250
     FM182200 16005KT P6SM VCTS SCT050CB BKN150
     FM190200 VRB03KT P6SM BKN150 BKN250
      TEMPO 1908/1912 1SM BR SKC=

USA.gov is the U.S. government's official web portal to all federal, state and local government web resources and services.